createdAt,value
2023-03-04T00:00:05.454Z,87.13
2023-03-04T00:10:12.552Z,87.21
2023-03-04T00:20:15.059Z,86.32
2023-03-04T00:30:17.822Z,87.08
2023-03-04T00:40:21.600Z,87.66
2023-03-04T00:50:24.095Z,86.15
2023-03-04T01:00:26.944Z,87.59
2023-03-04T01:10:30.209Z,87.86
2023-03-04T01:20:32.769Z,86.49
2023-03-04T01:30:35.309Z,86.66
2023-03-04T01:40:38.294Z,85.95
2023-03-04T01:50:40.944Z,87.72
2023-03-04T02:00:43.789Z,87.27
2023-03-04T02:10:47.856Z,88.29
2023-03-04T02:21:12.843Z,88.63
2023-03-04T02:31:37.762Z,87.98
2023-03-04T02:41:40.579Z,88.89
2023-03-04T02:51:43.561Z,89.47
2023-03-04T03:01:46.529Z,89.47
2023-03-04T03:11:49.389Z,88.60
2023-03-04T03:21:52.125Z,88.65
2023-03-04T03:31:54.769Z,89.58
2023-03-04T03:41:57.333Z,88.55
2023-03-04T03:51:59.985Z,87.19
2023-03-04T04:02:02.475Z,88.79
2023-03-04T04:12:06.343Z,90.03
2023-03-04T04:22:15.019Z,91.46
2023-03-04T04:32:17.653Z,92.99
2023-03-04T04:42:20.215Z,98.81
2023-03-04T04:52:22.678Z,95.74
2023-03-04T05:02:25.090Z,98.41
2023-03-04T05:12:27.758Z,99.70
2023-03-04T05:22:30.272Z,96.57
2023-03-04T05:32:32.888Z,95.48
2023-03-04T05:42:35.470Z,94.81
2023-03-04T05:52:38.063Z,95.63
2023-03-04T06:02:41.528Z,98.42
2023-03-04T06:12:44.243Z,98.81
2023-03-04T06:22:46.704Z,95.97
2023-03-04T06:32:49.386Z,92.92
2023-03-04T06:42:51.822Z,92.14
2023-03-04T06:52:56.889Z,92.47
2023-03-04T07:02:59.832Z,91.24
2023-03-04T07:13:02.645Z,89.29
2023-03-04T07:23:05.111Z,88.04
2023-03-04T07:33:07.920Z,86.55
2023-03-04T07:43:12.582Z,85.37
2023-03-04T07:53:15.154Z,80.58
2023-03-04T08:03:17.874Z,79.65
2023-03-04T08:13:20.361Z,75.82
2023-03-04T08:23:23.085Z,73.62
2023-03-04T08:33:25.686Z,69.86
2023-03-04T08:43:28.216Z,66.85
2023-03-04T08:53:30.658Z,63.76
2023-03-04T09:03:33.372Z,61.63
2023-03-04T09:13:36.349Z,57.89
2023-03-04T09:23:39.130Z,54.74
2023-03-04T09:33:43.184Z,53.08
2023-03-04T09:43:47.319Z,50.09
2023-03-04T09:53:58.529Z,49.85
2023-03-04T10:04:10.652Z,48.06
2023-03-04T10:14:22.457Z,44.16
2023-03-04T10:24:28.838Z,45.64
2023-03-04T10:34:31.332Z,43.80
2023-03-04T10:44:35.233Z,41.58
2023-03-04T10:54:37.631Z,38.85
2023-03-04T11:04:40.557Z,39.44
2023-03-04T11:14:50.885Z,37.39
2023-03-04T11:25:01.304Z,36.80
2023-03-04T11:35:23.928Z,33.84
2023-03-04T11:45:42.950Z,31.33
2023-03-04T11:56:10.594Z,31.25
2023-03-04T12:06:25.407Z,30.76
2023-03-04T12:16:46.525Z,32.08
2023-03-04T12:26:55.214Z,29.16
2023-03-04T12:37:35.638Z,27.88
2023-03-04T12:47:55.496Z,29.92
2023-03-04T12:57:58.426Z,28.64
2023-03-04T13:08:13.378Z,30.72
2023-03-04T13:18:32.493Z,30.91
2023-03-04T13:28:37.090Z,33.48
2023-03-04T13:38:39.733Z,31.20
2023-03-04T13:48:43.258Z,29.67
2023-03-04T13:58:46.459Z,32.59
2023-03-04T14:08:50.884Z,34.83
2023-03-04T14:19:02.735Z,39.35
2023-03-04T14:29:22.954Z,38.79
2023-03-04T14:39:30.022Z,39.10
2023-03-04T14:49:35.388Z,41.07
2023-03-04T14:59:38.176Z,39.99
2023-03-04T15:09:41.769Z,41.03
2023-03-04T15:19:44.410Z,41.83
2023-03-04T15:29:47.351Z,42.61
2023-03-04T15:39:51.355Z,42.75
2023-03-04T15:49:53.823Z,43.44
2023-03-04T15:59:56.343Z,43.58
2023-03-04T16:10:05.664Z,44.14
2023-03-04T16:20:09.817Z,46.17
2023-03-04T16:30:24.292Z,47.78
2023-03-04T16:40:30.229Z,49.32
2023-03-04T16:50:32.799Z,50.39
2023-03-04T17:00:35.652Z,53.47
2023-03-04T17:10:38.260Z,54.84
2023-03-04T17:20:40.895Z,57.77
2023-03-04T17:30:43.449Z,54.48
2023-03-04T17:40:46.281Z,53.61
2023-03-04T17:50:53.339Z,53.77
2023-03-04T18:01:02.978Z,54.49
2023-03-04T18:11:06.058Z,56.27
2023-03-04T18:21:09.167Z,54.82
2023-03-04T18:31:11.920Z,57.11
2023-03-04T18:41:15.631Z,56.54
2023-03-04T18:51:18.469Z,58.21
2023-03-04T19:01:24.655Z,59.21
2023-03-04T19:11:29.938Z,61.45
2023-03-04T19:21:38.178Z,63.13
2023-03-04T19:31:41.561Z,63.98
2023-03-04T19:41:44.850Z,64.18
2023-03-04T19:51:47.726Z,65.27
2023-03-04T20:01:50.855Z,67.78
2023-03-04T20:11:58.719Z,68.00
2023-03-04T20:22:02.916Z,69.55
2023-03-04T20:32:05.781Z,69.20
2023-03-04T20:42:08.622Z,70.94
2023-03-04T20:52:11.537Z,70.11
2023-03-04T21:02:17.257Z,71.05
2023-03-04T21:12:20.265Z,72.79
2023-03-04T21:22:22.781Z,74.89
2023-03-04T21:32:27.104Z,75.45
2023-03-04T21:42:29.777Z,75.40
2023-03-04T21:52:32.201Z,74.34
2023-03-04T22:02:39.214Z,74.67
2023-03-04T22:12:41.696Z,75.62
2023-03-04T22:22:44.107Z,75.30
2023-03-04T22:32:48.390Z,74.50
2023-03-04T22:42:51.002Z,75.83
2023-03-04T22:52:53.844Z,74.52
2023-03-04T23:02:56.982Z,75.69
2023-03-04T23:12:59.959Z,75.11
2023-03-04T23:23:02.979Z,75.34
2023-03-04T23:33:05.578Z,74.24
2023-03-04T23:43:08.260Z,73.56
2023-03-04T23:53:10.729Z,72.82
